Terminal Aerodrome Forecast
Issued by NWS

Home | Current Version | Previous Version | Text Only | Print | Product List | Glossary On
Versions: 1 2 3 4 5 6 7 8 9 10 11 12 13 14 15 16 17 18 19 20 21 22 23
000
FTUS44 KMAF 290500
TAFHOB
TAF
KHOB 290520Z 2906/3006 12011KT P6SM SCT150 BKN200
     FM291100 16006KT 5SM BR OVC015
     FM291400 35008KT P6SM SCT060 SCT250=

USA.gov is the U.S. government's official web portal to all federal, state and local government web resources and services.